GUCY/CKY METAR and TAF weather

Enter ICAO airport designator
Station Type Date Time Source
GUCY METAR 2018/12/10 17:00 UTC NOAA

GUCY 101700Z 25008KT CAVOK 31/25 Q1011 NOSIG


Station Type Date Time Source
GUCY Decoded METAR 2018/12/10 17:00 UTC NOAA

Conakry / Gbessia, Guinea (GUCY) 09-34N 013-37W 26M
Dec 10, 2018 - 12:00 PM EST / 2018.12.10 1700 UTC
Wind: from the WSW (250 degrees) at 9 MPH (8 KT):0
Visibility: greater than 7 mile(s):0
Temperature: 87 F (31 C)
Heat index: 97.5 F (36.4 C):1
Dew Point: 77 F (25 C)
Relative Humidity: 70%
Pressure (altimeter): 29.85 in. Hg (1011 hPa)
ob: GUCY 101700Z 25008KT CAVOK 31/25 Q1011 NOSIG
cycle: 17

Station Type Date Time Source
GUCY TAF 2018/12/10 18:09 UTC NOAA

TAF TAF GUCY 101700Z 1018/1124 28006KT 6000 HZ PROB30
TEMPO 1021/1102 34004KT 4000 HZ
BECMG 1104/1108 VRB02KT 3000 BR FEW015 SCT110


Example: see airport list